Time;durP1;ratioP1;P1;durP2;ratioP2;P2;SDS_P1;SDS_P2;PMS_P1;PMS_P2;Temp;Humidity;BMP_temperature;BMP_pressure;BME280_temperature;BME280_humidity;BME280_pressure;Samples;Min_cycle;Max_cycle;Signal;HPM_P1;HPM_P2
2020/12/09 00:01:51;;;;;;;51.53;26.48;;;;;;;1.08;92.19;97794.13;4855539;29;20066;-68
2020/12/09 00:04:18;;;;;;;48.55;26.05;;;;;;;1.01;91.42;97800.88;4847899;29;20380;-69
2020/12/09 00:06:43;;;;;;;56.75;28.98;;;;;;;0.95;90.87;97800.84;4848730;29;20029;-68
2020/12/09 00:09:11;;;;;;;56.47;28.80;;;;;;;0.88;91.47;97801.69;4854571;29;20029;-69
2020/12/09 00:11:37;;;;;;;56.53;29.23;;;;;;;0.89;92.29;97801.69;4842576;29;20392;-69
2020/12/09 00:14:04;;;;;;;55.50;26.88;;;;;;;0.88;91.93;97804.22;4853580;29;20037;-69
2020/12/09 00:16:29;;;;;;;58.70;30.83;;;;;;;0.83;91.70;97801.66;4849087;29;20086;-69
2020/12/09 00:18:56;;;;;;;55.83;29.33;;;;;;;0.80;91.91;97800.78;4847147;29;20113;-69
2020/12/09 00:21:23;;;;;;;60.15;30.17;;;;;;;0.76;91.90;97805.84;4855802;29;20040;-68
2020/12/09 00:23:50;;;;;;;78.60;34.35;;;;;;;0.75;92.00;97804.16;4844094;29;20032;-69
2020/12/09 00:26:17;;;;;;;111.47;47.85;;;;;;;0.71;92.00;97809.22;4851737;29;20038;-68
2020/12/09 00:28:43;;;;;;;84.10;41.38;;;;;;;0.62;92.41;97807.47;4849891;29;20044;-69
2020/12/09 00:31:08;;;;;;;63.35;31.73;;;;;;;0.68;92.36;97815.19;4845312;29;20373;-69
2020/12/09 00:33:33;;;;;;;63.00;31.45;;;;;;;0.71;92.65;97807.53;4869534;29;20025;-69
2020/12/09 00:35:59;;;;;;;68.75;32.60;;;;;;;0.64;92.65;97805.81;4845253;29;20033;-69
2020/12/09 00:38:24;;;;;;;74.03;34.70;;;;;;;0.62;93.08;97802.38;4849297;29;20094;-68
2020/12/09 00:40:49;;;;;;;95.97;45.67;;;;;;;0.74;93.93;97802.47;4840411;29;20030;-69
2020/12/09 00:43:15;;;;;;;77.57;37.45;;;;;;;0.70;92.94;97808.38;4840294;29;20392;-69
2020/12/09 00:45:40;;;;;;;62.50;31.60;;;;;;;0.69;93.11;97811.78;4840421;29;20061;-69
2020/12/09 00:48:05;;;;;;;62.42;31.05;;;;;;;0.81;92.98;97815.22;4840115;29;20029;-69
2020/12/09 00:50:31;;;;;;;63.92;31.88;;;;;;;0.80;93.39;97816.09;4840505;29;20094;-69
2020/12/09 00:52:56;;;;;;;62.45;32.08;;;;;;;1.09;93.70;97804.31;4840133;29;20113;-69
2020/12/09 00:55:22;;;;;;;65.32;32.13;;;;;;;0.99;92.17;97812.78;4840296;29;20060;-68
2020/12/09 00:57:48;;;;;;;64.88;33.78;;;;;;;0.83;92.04;97816.13;4840359;29;20086;-69
2020/12/09 07:02:02;;;;;;;82.82;37.20;;;;;;;0.54;96.88;98047.88;5244465;23;20138;-68
2020/12/09 07:04:52;;;;;;;84.80;38.13;;;;;;;0.63;96.97;98043.72;4897882;29;20072;-67
2020/12/09 07:07:35;;;;;;;80.68;38.30;;;;;;;0.68;96.55;98047.16;4896370;29;20393;-68
2020/12/09 07:10:03;;;;;;;93.05;39.10;;;;;;;0.85;97.03;98061.72;4897754;29;20047;-68
2020/12/09 07:12:28;;;;;;;83.60;39.60;;;;;;;0.64;96.61;98058.16;4897342;29;20462;-68
2020/12/09 07:14:56;;;;;;;85.20;38.58;;;;;;;0.90;96.55;98067.72;4911715;23;20085;-67
2020/12/09 07:17:26;;;;;;;86.70;39.65;;;;;;;0.85;96.36;98071.94;4897498;29;20033;-68
2020/12/09 07:19:51;;;;;;;;;;;;;;;0.61;96.61;98070.84;4897950;29;20508;-68
2020/12/09 07:22:17;;;;;;;87.80;39.67;;;;;;;0.47;96.41;98077.50;4822131;29;19915;-67
2020/12/09 07:24:43;;;;;;;102.82;44.13;;;;;;;0.40;96.53;98076.59;4890285;29;20032;-67
2020/12/09 07:27:10;;;;;;;93.30;44.55;;;;;;;0.49;96.73;98070.75;4897830;29;20071;-67
2020/12/09 07:29:44;;;;;;;95.15;43.10;;;;;;;0.46;96.53;98080.91;4897640;29;20397;-68
2020/12/09 07:32:09;;;;;;;85.70;40.72;;;;;;;0.64;97.07;98085.34;4897321;29;20029;-68
2020/12/09 07:34:58;;;;;;;89.22;41.17;;;;;;;0.50;97.01;98083.50;4880781;29;20080;-67
2020/12/09 07:37:26;;;;;;;85.65;41.60;;;;;;;0.50;96.53;98092.84;4934826;29;20078;-67
2020/12/09 07:39:53;;;;;;;85.95;40.60;;;;;;;0.67;96.62;98091.28;4935140;29;20062;-67
2020/12/09 07:42:23;;;;;;;80.57;40.65;;;;;;;0.72;96.34;98084.56;4934991;29;20038;-67
2020/12/09 07:44:50;;;;;;;85.43;39.00;;;;;;;0.83;96.18;98083.81;4934817;29;20576;-68
2020/12/09 07:47:24;;;;;;;86.50;40.85;;;;;;;0.64;96.30;98086.19;4934832;29;20027;-67
2020/12/09 07:49:54;;;;;;;79.50;38.80;;;;;;;0.68;96.46;98087.94;4935008;29;20055;-67
2020/12/09 07:52:25;;;;;;;71.75;37.67;;;;;;;0.96;96.47;98093.28;4934889;29;20031;-67
2020/12/09 07:54:53;;;;;;;80.93;39.20;;;;;;;0.81;96.05;98088.03;4934727;29;20111;-67
2020/12/09 07:57:19;;;;;;;79.53;37.38;;;;;;;0.67;96.65;98095.53;4934522;29;20024;-68
2020/12/09 07:59:44;;;;;;;85.68;40.15;;;;;;;0.70;96.48;98099.00;4934645;29;20110;-67
2020/12/09 08:02:26;;;;;;;86.93;42.03;;;;;;;0.76;96.01;98101.59;4934455;29;20111;-68
2020/12/09 08:05:07;;;;;;;76.45;39.20;;;;;;;0.78;95.69;98101.63;4934427;29;20106;-67
2020/12/09 08:07:32;;;;;;;93.60;42.20;;;;;;;0.66;96.35;98101.50;4933294;29;20381;-68
2020/12/09 08:10:10;;;;;;;87.82;40.55;;;;;;;0.79;96.48;98108.44;4934510;29;20032;-67
2020/12/09 08:12:36;;;;;;;91.50;39.72;;;;;;;0.88;96.22;98110.22;4934219;29;20366;-66
2020/12/09 08:15:05;;;;;;;87.22;40.25;;;;;;;0.85;96.24;98107.63;4934159;29;20038;-67
2020/12/09 08:17:32;;;;;;;82.33;38.37;;;;;;;0.83;96.41;98111.88;4934236;29;20039;-66
2020/12/09 08:19:58;;;;;;;84.60;40.80;;;;;;;0.80;96.11;98115.22;4934397;29;20438;-66
2020/12/09 08:22:24;;;;;;;86.85;39.40;;;;;;;0.88;95.76;98113.63;4934412;29;20392;-68
2020/12/09 08:25:04;;;;;;;81.38;38.53;;;;;;;0.92;96.11;98117.91;4934125;29;20032;-68
2020/12/09 08:27:41;;;;;;;85.97;40.95;;;;;;;0.82;96.41;98120.34;4934223;29;20079;-66
2020/12/09 08:30:08;;;;;;;83.70;39.72;;;;;;;0.98;96.61;98122.22;4934177;29;20049;-68
2020/12/09 08:33:08;;;;;;;96.57;46.95;;;;;;;0.96;96.06;98118.78;4933847;29;20031;-68
2020/12/09 08:36:00;;;;;;;106.88;48.72;;;;;;;0.90;96.74;98128.94;4934097;29;20059;-67
2020/12/09 08:38:31;;;;;;;107.68;47.05;;;;;;;0.88;96.92;98130.63;4933849;29;20038;-67
2020/12/09 08:41:17;;;;;;;98.20;43.30;;;;;;;0.94;96.88;98130.66;4933883;29;20031;-65
2020/12/09 08:43:44;;;;;;;94.13;43.42;;;;;;;1.03;96.26;98130.75;4929835;29;20035;-65
2020/12/09 08:46:11;;;;;;;91.47;43.58;;;;;;;0.96;96.76;98134.06;4933904;29;20027;-65
2020/12/09 08:48:38;;;;;;;93.72;43.03;;;;;;;1.09;96.83;98140.16;4933891;29;20075;-64
2020/12/09 08:51:04;;;;;;;82.70;40.03;;;;;;;1.36;95.61;98139.56;4932597;29;20028;-64
2020/12/09 08:53:31;;;;;;;90.68;40.53;;;;;;;1.25;95.43;98135.19;4933588;29;20053;-65
2020/12/09 08:55:56;;;;;;;80.80;41.58;;;;;;;1.18;95.78;98146.19;4934043;29;20582;-65
2020/12/09 08:58:22;;;;;;;85.43;41.45;;;;;;;1.20;95.60;98138.56;4933850;29;20128;-64
2020/12/09 09:00:48;;;;;;;81.70;39.10;;;;;;;1.33;96.01;98134.41;4933870;29;20469;-64
2020/12/09 09:03:18;;;;;;;81.53;38.72;;;;;;;1.27;95.49;98146.28;4933999;29;20066;-65
2020/12/09 09:05:46;;;;;;;83.95;41.58;;;;;;;1.47;95.37;98137.94;4933706;29;20115;-65
2020/12/09 09:08:14;;;;;;;83.00;38.50;;;;;;;1.69;95.47;98136.38;4934012;29;20106;-65
2020/12/09 09:10:41;;;;;;;85.28;40.17;;;;;;;1.44;94.31;98143.00;4933863;29;20051;-64
2020/12/09 09:13:07;;;;;;;81.78;40.38;;;;;;;1.44;94.83;98136.19;4933506;29;20126;-65
2020/12/09 09:15:34;;;;;;;80.32;40.83;;;;;;;1.32;95.67;98145.47;4933661;29;20441;-65
2020/12/09 09:18:00;;;;;;;82.95;39.38;;;;;;;1.51;94.83;98139.69;4933688;29;20024;-65
2020/12/09 09:20:25;;;;;;;73.18;37.65;;;;;;;1.50;94.92;98138.81;4933456;29;20031;-64
2020/12/09 09:22:51;;;;;;;76.03;36.95;;;;;;;1.63;94.63;98144.00;4933441;29;20047;-64
2020/12/09 09:25:17;;;;;;;81.30;37.83;;;;;;;1.67;94.18;98146.59;4933532;29;20112;-65
2020/12/09 09:27:43;;;;;;;81.35;38.55;;;;;;;1.63;94.46;98139.75;4933625;29;20204;-64
2020/12/09 09:30:09;;;;;;;82.28;40.92;;;;;;;1.59;94.70;98148.22;4933471;29;20136;-64
2020/12/09 09:32:34;;;;;;;86.75;40.67;;;;;;;1.54;95.49;98149.88;4933452;29;20087;-65
2020/12/09 09:35:00;;;;;;;97.07;42.83;;;;;;;1.60;95.93;98152.50;4933164;29;20038;-65
2020/12/09 09:37:25;;;;;;;110.20;55.78;;;;;;;1.52;94.66;98151.59;4923264;28;20119;-65
2020/12/09 09:39:51;;;;;;;102.22;45.30;;;;;;;1.53;95.37;98158.41;4933552;29;20300;-64
2020/12/09 09:42:18;;;;;;;107.25;51.70;;;;;;;1.44;95.50;98153.22;4933654;29;20473;-64
2020/12/09 09:44:45;;;;;;;101.32;45.08;;;;;;;1.68;94.54;98153.41;4933557;29;20028;-64
2020/12/09 09:47:10;;;;;;;85.88;42.65;;;;;;;1.58;94.38;98156.72;4933362;29;20031;-67
2020/12/09 09:49:35;;;;;;;90.55;42.03;;;;;;;1.62;95.10;98147.41;4932946;29;20023;-67
2020/12/09 09:52:01;;;;;;;96.28;40.40;;;;;;;1.58;95.09;98146.53;4932279;29;20059;-68
2020/12/09 09:54:26;;;;;;;109.35;53.78;;;;;;;1.63;94.94;98147.41;4932719;29;20087;-67
2020/12/09 09:56:51;;;;;;;132.18;69.15;;;;;;;1.52;94.64;98151.59;4933128;29;20028;-68
2020/12/09 09:59:17;;;;;;;99.85;45.70;;;;;;;1.48;95.10;98154.94;4947945;29;20500;-68
2020/12/09 10:01:42;;;;;;;101.93;44.17;;;;;;;1.55;95.84;98156.72;4933181;29;20031;-67
2020/12/09 10:04:08;;;;;;;86.18;42.33;;;;;;;1.58;96.17;98151.63;4933431;29;20110;-68
2020/12/09 10:06:35;;;;;;;92.45;43.20;;;;;;;1.64;96.03;98155.91;4933179;29;20111;-68
2020/12/09 10:09:00;;;;;;;88.78;42.55;;;;;;;1.66;95.49;98149.13;4933160;29;20103;-67
2020/12/09 10:11:26;;;;;;;101.10;48.50;;;;;;;1.60;95.17;98147.41;4933099;29;20424;-67
2020/12/09 10:13:51;;;;;;;86.93;41.47;;;;;;;1.69;95.23;98152.56;4935765;29;20055;-67
2020/12/09 10:16:26;;;;;;;81.30;39.08;;;;;;;1.72;95.40;98142.38;4936504;29;20098;-68
2020/12/09 10:18:52;;;;;;;92.22;42.63;;;;;;;1.76;95.21;98146.66;4936393;29;20028;-68
2020/12/09 10:21:24;;;;;;;90.50;41.70;;;;;;;1.76;95.20;98146.66;4936447;29;20417;-67
2020/12/09 10:23:49;;;;;;;99.90;43.13;;;;;;;1.74;95.37;98147.47;4936246;29;20043;-67
2020/12/09 10:26:15;;;;;;;123.32;51.70;;;;;;;1.56;96.04;98143.13;4936373;29;20031;-68
2020/12/09 10:28:41;;;;;;;120.85;47.28;;;;;;;1.59;96.16;98138.00;4936454;29;20031;-67
2020/12/09 10:31:07;;;;;;;92.50;43.15;;;;;;;1.54;96.83;98139.69;4936093;29;20031;-68
2020/12/09 10:33:32;;;;;;;97.00;47.17;;;;;;;1.82;96.39;98134.75;4936129;29;20373;-67
2020/12/09 10:35:57;;;;;;;113.47;47.92;;;;;;;2.09;94.66;98134.94;4936321;29;20028;-68
2020/12/09 10:38:22;;;;;;;88.88;40.45;;;;;;;2.23;94.96;98135.84;4936192;29;20489;-68
2020/12/09 10:40:48;;;;;;;81.65;42.22;;;;;;;2.40;94.12;98119.72;4936124;29;20171;-68
2020/12/09 10:43:13;;;;;;;80.82;40.00;;;;;;;2.46;93.62;98119.75;4935914;29;20027;-67
2020/12/09 10:45:39;;;;;;;80.13;38.97;;;;;;;2.56;93.26;98121.47;4935956;29;20178;-66
2020/12/09 10:48:04;;;;;;;78.57;37.45;;;;;;;2.44;93.43;98127.41;4932812;29;20370;-67
2020/12/09 10:50:29;;;;;;;76.93;37.97;;;;;;;2.34;92.42;98124.81;4935705;29;20381;-67
2020/12/09 10:52:55;;;;;;;76.32;37.88;;;;;;;2.41;93.47;98127.41;4930161;29;20043;-67
2020/12/09 10:55:23;;;;;;;78.88;38.80;;;;;;;2.46;93.42;98125.69;4929315;29;20024;-66
2020/12/09 10:57:48;;;;;;;80.63;39.50;;;;;;;2.44;93.49;98121.44;4926738;29;20024;-67
2020/12/09 11:00:13;;;;;;;77.63;37.97;;;;;;;2.31;93.70;98120.53;4921892;29;20080;-66
2020/12/09 11:02:39;;;;;;;79.63;37.17;;;;;;;2.28;92.57;98120.53;4931979;29;20078;-66
2020/12/09 11:05:04;;;;;;;83.25;39.13;;;;;;;2.20;93.38;98117.94;4921171;29;20767;-67
2020/12/09 11:07:29;;;;;;;76.07;38.22;;;;;;;2.36;92.37;98118.00;4927684;29;20031;-67
2020/12/09 11:09:55;;;;;;;61.88;33.40;;;;;;;2.15;91.71;98122.19;4927664;29;20028;-67
2020/12/09 11:12:20;;;;;;;63.53;33.33;;;;;;;2.23;92.49;98117.97;4920975;29;20059;-67
2020/12/09 11:14:45;;;;;;;66.80;33.75;;;;;;;2.30;91.69;98117.13;4931685;29;20118;-67
2020/12/09 11:17:11;;;;;;;65.82;31.25;;;;;;;2.30;91.39;98121.41;4921670;29;20035;-67
2020/12/09 11:19:36;;;;;;;63.78;33.78;;;;;;;2.32;92.13;98127.34;4926311;29;20654;-67
2020/12/09 11:22:03;;;;;;;65.93;34.78;;;;;;;2.16;92.44;98126.44;4928231;29;20039;-67
2020/12/09 11:24:28;;;;;;;66.68;35.90;;;;;;;2.12;93.18;98132.38;4933600;28;20028;-63
2020/12/09 11:26:54;;;;;;;62.63;32.10;;;;;;;2.09;92.74;98124.72;4931806;29;20016;-63
2020/12/09 11:29:19;;;;;;;60.72;32.92;;;;;;;1.92;94.22;98136.53;4922419;29;20044;-63
2020/12/09 11:31:45;;;;;;;59.05;31.65;;;;;;;2.04;93.71;98141.72;4925005;29;20032;-63
2020/12/09 11:34:10;;;;;;;61.42;33.20;;;;;;;1.99;93.28;98133.19;4928992;29;20039;-66
2020/12/09 11:36:35;;;;;;;56.90;31.50;;;;;;;2.26;92.23;98117.97;4919394;29;20087;-66
2020/12/09 11:39:01;;;;;;;63.95;33.20;;;;;;;2.11;92.53;98117.91;4930589;29;20501;-66
2020/12/09 11:41:29;;;;;;;56.53;31.77;;;;;;;2.21;92.42;98108.56;4923377;29;20111;-66
2020/12/09 11:43:55;;;;;;;63.45;31.65;;;;;;;2.04;92.32;98118.72;4923623;29;20028;-66
2020/12/09 11:46:22;;;;;;;59.13;31.60;;;;;;;2.02;92.44;98112.75;4930303;29;20028;-66
2020/12/09 11:48:47;;;;;;;58.33;32.50;;;;;;;2.05;92.92;98110.22;4918950;29;20024;-66
2020/12/09 11:51:14;;;;;;;62.25;33.28;;;;;;;2.26;91.42;98102.63;4929073;29;20035;-66
2020/12/09 11:53:39;;;;;;;59.03;31.75;;;;;;;2.06;91.76;98110.22;4924639;29;20039;-66
2020/12/09 11:56:05;;;;;;;58.03;32.63;;;;;;;2.09;92.48;98104.28;4922116;29;20028;-66
2020/12/09 11:58:30;;;;;;;71.25;34.92;;;;;;;2.11;93.20;98106.81;4931271;29;20028;-66
2020/12/09 12:00:55;;;;;;;66.55;33.25;;;;;;;2.16;92.41;98098.31;4918825;29;20031;-68
2020/12/09 12:03:21;;;;;;;64.25;35.05;;;;;;;2.14;92.67;98097.47;4927631;29;20553;-66
2020/12/09 12:05:51;;;;;;;65.78;33.45;;;;;;;2.16;91.52;98106.00;4925550;29;20079;-66
2020/12/09 12:08:16;;;;;;;67.85;35.38;;;;;;;2.03;93.11;98099.13;4920392;29;20382;-66
2020/12/09 12:10:42;;;;;;;69.82;35.72;;;;;;;2.44;91.56;98101.84;4930926;29;20186;-68
2020/12/09 12:13:07;;;;;;;73.43;36.60;;;;;;;2.28;91.03;98095.84;4919936;29;20035;-67
2020/12/09 12:15:32;;;;;;;69.93;34.72;;;;;;;2.29;91.91;98097.53;4925992;29;20047;-68
2020/12/09 12:17:58;;;;;;;67.95;34.13;;;;;;;2.35;92.30;98103.53;4926748;29;20055;-68
2020/12/09 12:20:23;;;;;;;66.88;34.35;;;;;;;2.51;90.84;98098.44;4919173;29;20056;-68
2020/12/09 12:22:49;;;;;;;65.75;34.03;;;;;;;2.44;91.47;98101.84;4930517;29;20036;-65
2020/12/09 12:25:14;;;;;;;72.80;35.22;;;;;;;2.27;91.77;98106.91;4921087;29;20058;-65
2020/12/09 12:27:39;;;;;;;72.13;35.30;;;;;;;2.43;92.14;98109.53;4924941;29;20040;-65
2020/12/09 12:30:05;;;;;;;70.30;33.72;;;;;;;2.51;92.35;98107.81;4927188;29;20031;-65
2020/12/09 12:32:31;;;;;;;69.55;35.33;;;;;;;2.47;91.76;98111.25;4918107;29;20032;-65
2020/12/09 12:34:56;;;;;;;75.18;37.47;;;;;;;2.54;92.46;98105.28;4929670;29;20043;-65
2020/12/09 12:37:21;;;;;;;76.30;36.33;;;;;;;2.52;91.70;98105.28;4921899;29;20127;-66
2020/12/09 12:39:47;;;;;;;70.18;36.22;;;;;;;2.61;91.83;98109.59;4923490;29;20035;-66
2020/12/09 12:42:12;;;;;;;71.43;38.00;;;;;;;2.56;91.68;98103.56;4943102;29;20501;-67
2020/12/09 12:44:37;;;;;;;62.22;33.70;;;;;;;2.39;92.43;98107.81;4917642;29;20028;-65
2020/12/09 12:47:03;;;;;;;72.30;35.90;;;;;;;2.55;91.40;98110.41;4929316;29;20032;-65
2020/12/09 12:49:28;;;;;;;69.30;34.65;;;;;;;2.48;90.56;98112.94;4922526;29;20027;-65
2020/12/09 12:51:57;;;;;;;68.93;35.70;;;;;;;2.60;91.67;98112.97;4922512;29;20084;-65
2020/12/09 12:54:22;;;;;;;69.50;37.03;;;;;;;2.70;91.98;98109.59;4929548;29;20031;-65
2020/12/09 12:56:52;;;;;;;71.45;35.42;;;;;;;2.71;91.81;98116.44;4917822;29;20612;-66
2020/12/09 12:59:17;;;;;;;70.60;35.60;;;;;;;2.59;90.94;98108.72;4927298;29;20075;-66
2020/12/09 13:01:43;;;;;;;63.53;34.10;;;;;;;2.77;91.93;98101.09;4924170;29;20040;-65
2020/12/09 13:04:08;;;;;;;68.32;34.90;;;;;;;2.49;90.54;98102.72;4920502;29;20538;-65
2020/12/09 13:06:33;;;;;;;68.18;34.55;;;;;;;2.44;90.80;98108.66;4930177;29;20034;-66
2020/12/09 13:08:59;;;;;;;67.30;34.35;;;;;;;2.37;91.15;98112.03;4918397;29;20020;-67
2020/12/09 13:11:24;;;;;;;67.28;34.85;;;;;;;2.23;91.86;98112.84;4926477;29;20024;-68
2020/12/09 13:13:49;;;;;;;60.58;32.95;;;;;;;2.35;90.93;98116.31;4938922;23;20055;-71
2020/12/09 13:16:14;;;;;;;62.72;33.53;;;;;;;2.20;91.74;98115.38;4933751;29;20040;-72
2020/12/09 13:18:40;;;;;;;65.65;34.85;;;;;;;2.09;93.03;98119.59;4917589;29;20028;-71
2020/12/09 13:21:06;;;;;;;66.45;34.15;;;;;;;2.04;93.21;98116.16;4928749;29;20102;-71
2020/12/09 13:23:32;;;;;;;63.47;31.75;;;;;;;1.99;92.42;98125.53;4922424;29;20039;-73
2020/12/09 13:25:57;;;;;;;62.17;31.45;;;;;;;1.96;92.72;98118.69;4921777;29;20036;-69
2020/12/09 13:28:23;;;;;;;61.85;30.88;;;;;;;1.94;92.70;98122.94;4928083;29;20059;-70
2020/12/09 13:30:48;;;;;;;64.30;32.78;;;;;;;1.97;93.30;98127.19;4917645;29;20032;-69
